sensor_id;sensor_type;location;lat;lon;timestamp;temperature;humidity
37678;DHT22;23517;50.390;8.616;2023-05-10T00:00:59;14.00;90.00
37678;DHT22;23517;50.390;8.616;2023-05-10T00:03:26;13.90;90.10
37678;DHT22;23517;50.390;8.616;2023-05-10T00:05:52;14.00;89.60
37678;DHT22;23517;50.390;8.616;2023-05-10T00:08:19;13.90;89.70
37678;DHT22;23517;50.390;8.616;2023-05-10T00:10:46;13.90;89.30
37678;DHT22;23517;50.390;8.616;2023-05-10T00:13:13;13.90;89.00
37678;DHT22;23517;50.390;8.616;2023-05-10T00:15:39;13.90;88.50
37678;DHT22;23517;50.390;8.616;2023-05-10T00:18:06;13.80;87.70
37678;DHT22;23517;50.390;8.616;2023-05-10T00:20:33;13.90;88.10
37678;DHT22;23517;50.390;8.616;2023-05-10T00:22:59;13.90;87.70
37678;DHT22;23517;50.390;8.616;2023-05-10T00:25:26;13.90;88.00
37678;DHT22;23517;50.390;8.616;2023-05-10T00:27:53;13.80;87.80
37678;DHT22;23517;50.390;8.616;2023-05-10T00:30:22;13.80;88.10
37678;DHT22;23517;50.390;8.616;2023-05-10T00:32:49;13.70;87.80
37678;DHT22;23517;50.390;8.616;2023-05-10T00:35:16;13.70;88.00
37678;DHT22;23517;50.390;8.616;2023-05-10T00:37:43;13.70;88.30
37678;DHT22;23517;50.390;8.616;2023-05-10T00:40:10;13.70;87.20
37678;DHT22;23517;50.390;8.616;2023-05-10T00:42:37;13.70;87.70
37678;DHT22;23517;50.390;8.616;2023-05-10T00:45:04;13.70;87.10
37678;DHT22;23517;50.390;8.616;2023-05-10T00:47:31;13.70;87.30
37678;DHT22;23517;50.390;8.616;2023-05-10T00:49:59;13.60;86.80
37678;DHT22;23517;50.390;8.616;2023-05-10T00:52:28;13.50;87.50
37678;DHT22;23517;50.390;8.616;2023-05-10T00:54:55;13.50;85.40
37678;DHT22;23517;50.390;8.616;2023-05-10T00:57:23;13.40;84.60
37678;DHT22;23517;50.390;8.616;2023-05-10T00:59:50;13.40;85.20
37678;DHT22;23517;50.390;8.616;2023-05-10T01:02:17;13.50;84.70
37678;DHT22;23517;50.390;8.616;2023-05-10T01:04:44;13.40;85.90
37678;DHT22;23517;50.390;8.616;2023-05-10T01:07:11;13.40;85.50
37678;DHT22;23517;50.390;8.616;2023-05-10T01:09:38;13.30;85.80
37678;DHT22;23517;50.390;8.616;2023-05-10T01:12:05;13.30;86.60
37678;DHT22;23517;50.390;8.616;2023-05-10T01:14:34;13.40;86.40
37678;DHT22;23517;50.390;8.616;2023-05-10T01:17:02;13.40;86.00
37678;DHT22;23517;50.390;8.616;2023-05-10T01:19:31;13.40;85.70
37678;DHT22;23517;50.390;8.616;2023-05-10T01:25:24;13.40;85.30
37678;DHT22;23517;50.390;8.616;2023-05-10T01:31:12;13.30;85.80
37678;DHT22;23517;50.390;8.616;2023-05-10T01:34:17;13.20;86.30
37678;DHT22;23517;50.390;8.616;2023-05-10T01:37:20;13.30;87.50
37678;DHT22;23517;50.390;8.616;2023-05-10T01:42:46;13.30;86.70
37678;DHT22;23517;50.390;8.616;2023-05-10T01:45:43;13.30;85.60
37678;DHT22;23517;50.390;8.616;2023-05-10T01:48:25;13.30;86.20
37678;DHT22;23517;50.390;8.616;2023-05-10T01:50:54;13.20;86.20
37678;DHT22;23517;50.390;8.616;2023-05-10T01:53:23;13.20;87.20
37678;DHT22;23517;50.390;8.616;2023-05-10T01:55:53;13.20;87.30
37678;DHT22;23517;50.390;8.616;2023-05-10T01:58:27;13.20;87.40
37678;DHT22;23517;50.390;8.616;2023-05-10T02:01:00;13.20;87.20
37678;DHT22;23517;50.390;8.616;2023-05-10T02:03:28;13.10;88.10
37678;DHT22;23517;50.390;8.616;2023-05-10T02:05:57;13.10;88.30
37678;DHT22;23517;50.390;8.616;2023-05-10T02:08:24;13.10;88.40
37678;DHT22;23517;50.390;8.616;2023-05-10T02:10:54;13.10;89.00
37678;DHT22;23517;50.390;8.616;2023-05-10T02:13:23;13.10;87.40
37678;DHT22;23517;50.390;8.616;2023-05-10T02:15:53;13.20;87.40
37678;DHT22;23517;50.390;8.616;2023-05-10T02:18:22;13.20;87.20
37678;DHT22;23517;50.390;8.616;2023-05-10T02:20:49;13.20;87.00
37678;DHT22;23517;50.390;8.616;2023-05-10T02:23:17;13.20;87.20
37678;DHT22;23517;50.390;8.616;2023-05-10T02:25:45;13.20;85.70
37678;DHT22;23517;50.390;8.616;2023-05-10T02:28:14;13.10;86.20
37678;DHT22;23517;50.390;8.616;2023-05-10T02:30:42;13.20;86.00
37678;DHT22;23517;50.390;8.616;2023-05-10T02:33:09;13.20;85.80
37678;DHT22;23517;50.390;8.616;2023-05-10T02:35:38;13.20;86.40
37678;DHT22;23517;50.390;8.616;2023-05-10T02:38:06;13.20;86.10
37678;DHT22;23517;50.390;8.616;2023-05-10T02:40:34;13.20;86.00
37678;DHT22;23517;50.390;8.616;2023-05-10T02:43:02;13.20;85.40
37678;DHT22;23517;50.390;8.616;2023-05-10T02:45:31;13.10;85.50
37678;DHT22;23517;50.390;8.616;2023-05-10T02:47:59;13.10;86.00
37678;DHT22;23517;50.390;8.616;2023-05-10T02:50:28;13.10;86.00
37678;DHT22;23517;50.390;8.616;2023-05-10T02:53:01;13.10;85.70
37678;DHT22;23517;50.390;8.616;2023-05-10T02:55:37;13.10;85.30
37678;DHT22;23517;50.390;8.616;2023-05-10T02:58:04;13.10;85.60
37678;DHT22;23517;50.390;8.616;2023-05-10T03:00:31;13.10;85.70
37678;DHT22;23517;50.390;8.616;2023-05-10T03:02:58;13.00;85.70
37678;DHT22;23517;50.390;8.616;2023-05-10T03:05:25;13.00;86.30
37678;DHT22;23517;50.390;8.616;2023-05-10T03:07:52;13.00;85.10
37678;DHT22;23517;50.390;8.616;2023-05-10T03:10:20;13.00;85.40
37678;DHT22;23517;50.390;8.616;2023-05-10T03:13:23;13.00;85.70
37678;DHT22;23517;50.390;8.616;2023-05-10T03:16:08;13.00;84.30
37678;DHT22;23517;50.390;8.616;2023-05-10T03:18:50;13.00;84.40
37678;DHT22;23517;50.390;8.616;2023-05-10T03:21:22;13.00;84.90
37678;DHT22;23517;50.390;8.616;2023-05-10T03:23:59;13.00;85.10
37678;DHT22;23517;50.390;8.616;2023-05-10T03:26:33;13.00;84.80
37678;DHT22;23517;50.390;8.616;2023-05-10T03:29:00;12.90;84.40
37678;DHT22;23517;50.390;8.616;2023-05-10T03:31:27;12.80;84.90
37678;DHT22;23517;50.390;8.616;2023-05-10T03:33:54;12.80;85.20
37678;DHT22;23517;50.390;8.616;2023-05-10T03:36:20;12.90;85.50
37678;DHT22;23517;50.390;8.616;2023-05-10T03:38:47;12.80;84.80
37678;DHT22;23517;50.390;8.616;2023-05-10T03:41:14;12.80;84.90
37678;DHT22;23517;50.390;8.616;2023-05-10T03:43:40;12.90;84.80
37678;DHT22;23517;50.390;8.616;2023-05-10T03:46:07;12.80;84.30
37678;DHT22;23517;50.390;8.616;2023-05-10T03:48:34;12.80;85.30
37678;DHT22;23517;50.390;8.616;2023-05-10T03:51:01;12.80;85.70
37678;DHT22;23517;50.390;8.616;2023-05-10T03:53:27;12.80;86.10
37678;DHT22;23517;50.390;8.616;2023-05-10T03:55:54;12.70;87.20
37678;DHT22;23517;50.390;8.616;2023-05-10T03:58:21;12.80;87.40
37678;DHT22;23517;50.390;8.616;2023-05-10T04:00:48;12.80;87.30
37678;DHT22;23517;50.390;8.616;2023-05-10T04:03:14;12.80;86.70
37678;DHT22;23517;50.390;8.616;2023-05-10T04:05:41;12.70;87.10
37678;DHT22;23517;50.390;8.616;2023-05-10T04:08:08;12.70;87.70
37678;DHT22;23517;50.390;8.616;2023-05-10T04:10:35;12.70;87.30
37678;DHT22;23517;50.390;8.616;2023-05-10T04:13:01;12.70;87.50
37678;DHT22;23517;50.390;8.616;2023-05-10T04:15:28;12.80;87.50
37678;DHT22;23517;50.390;8.616;2023-05-10T04:17:55;12.70;87.60
37678;DHT22;23517;50.390;8.616;2023-05-10T04:20:21;12.80;87.50
37678;DHT22;23517;50.390;8.616;2023-05-10T04:22:48;12.70;88.10
37678;DHT22;23517;50.390;8.616;2023-05-10T04:25:15;12.80;88.30
37678;DHT22;23517;50.390;8.616;2023-05-10T04:27:41;12.80;88.00
37678;DHT22;23517;50.390;8.616;2023-05-10T04:30:08;12.90;88.00
37678;DHT22;23517;50.390;8.616;2023-05-10T04:32:35;12.90;85.90
37678;DHT22;23517;50.390;8.616;2023-05-10T04:35:02;12.90;86.20
37678;DHT22;23517;50.390;8.616;2023-05-10T04:37:31;12.80;86.40
37678;DHT22;23517;50.390;8.616;2023-05-10T04:39:58;12.90;86.20
37678;DHT22;23517;50.390;8.616;2023-05-10T04:42:26;12.90;85.80
37678;DHT22;23517;50.390;8.616;2023-05-10T04:44:52;12.90;85.90
37678;DHT22;23517;50.390;8.616;2023-05-10T04:47:19;12.90;86.10
37678;DHT22;23517;50.390;8.616;2023-05-10T04:49:46;12.90;86.30
37678;DHT22;23517;50.390;8.616;2023-05-10T04:52:12;12.90;86.80
37678;DHT22;23517;50.390;8.616;2023-05-10T04:54:40;13.00;86.60
37678;DHT22;23517;50.390;8.616;2023-05-10T04:57:07;13.00;86.80
37678;DHT22;23517;50.390;8.616;2023-05-10T04:59:35;13.00;86.20
37678;DHT22;23517;50.390;8.616;2023-05-10T05:02:03;12.90;87.70
37678;DHT22;23517;50.390;8.616;2023-05-10T05:04:31;12.90;88.30
37678;DHT22;23517;50.390;8.616;2023-05-10T05:06:57;13.00;88.60
37678;DHT22;23517;50.390;8.616;2023-05-10T05:09:24;12.90;88.90
37678;DHT22;23517;50.390;8.616;2023-05-10T05:11:51;12.90;89.60
37678;DHT22;23517;50.390;8.616;2023-05-10T05:14:17;12.90;89.90
37678;DHT22;23517;50.390;8.616;2023-05-10T05:16:44;13.00;89.20
37678;DHT22;23517;50.390;8.616;2023-05-10T05:19:11;13.00;89.10
37678;DHT22;23517;50.390;8.616;2023-05-10T05:21:37;13.00;88.90
37678;DHT22;23517;50.390;8.616;2023-05-10T05:24:04;13.10;89.30
37678;DHT22;23517;50.390;8.616;2023-05-10T05:26:33;13.10;87.60
37678;DHT22;23517;50.390;8.616;2023-05-10T05:29:00;13.10;89.60
37678;DHT22;23517;50.390;8.616;2023-05-10T05:31:26;13.10;89.80
37678;DHT22;23517;50.390;8.616;2023-05-10T05:33:53;13.20;89.40
37678;DHT22;23517;50.390;8.616;2023-05-10T05:36:20;13.20;89.00
37678;DHT22;23517;50.390;8.616;2023-05-10T05:38:46;13.20;87.30
37678;DHT22;23517;50.390;8.616;2023-05-10T05:41:14;13.20;87.20
37678;DHT22;23517;50.390;8.616;2023-05-10T05:43:40;13.40;86.10
37678;DHT22;23517;50.390;8.616;2023-05-10T05:46:07;13.40;85.10
37678;DHT22;23517;50.390;8.616;2023-05-10T05:48:34;13.40;85.50
37678;DHT22;23517;50.390;8.616;2023-05-10T05:51:00;13.40;85.20
37678;DHT22;23517;50.390;8.616;2023-05-10T05:53:27;13.50;84.70
37678;DHT22;23517;50.390;8.616;2023-05-10T05:55:55;13.60;83.70
37678;DHT22;23517;50.390;8.616;2023-05-10T05:58:24;13.70;82.80
37678;DHT22;23517;50.390;8.616;2023-05-10T06:00:52;13.60;81.60
37678;DHT22;23517;50.390;8.616;2023-05-10T06:03:19;13.70;81.80
37678;DHT22;23517;50.390;8.616;2023-05-10T06:05:47;13.70;81.90
37678;DHT22;23517;50.390;8.616;2023-05-10T06:08:13;13.60;82.30
37678;DHT22;23517;50.390;8.616;2023-05-10T06:10:40;13.60;81.10
37678;DHT22;23517;50.390;8.616;2023-05-10T06:13:07;13.60;82.20
37678;DHT22;23517;50.390;8.616;2023-05-10T06:15:33;13.70;80.80
37678;DHT22;23517;50.390;8.616;2023-05-10T06:18:00;13.80;81.40
37678;DHT22;23517;50.390;8.616;2023-05-10T06:20:27;13.90;81.80
37678;DHT22;23517;50.390;8.616;2023-05-10T06:22:54;14.10;78.80
37678;DHT22;23517;50.390;8.616;2023-05-10T06:25:21;14.40;78.00
37678;DHT22;23517;50.390;8.616;2023-05-10T06:27:47;14.90;75.30
37678;DHT22;23517;50.390;8.616;2023-05-10T06:30:19;15.90;65.10
37678;DHT22;23517;50.390;8.616;2023-05-10T06:32:46;16.20;56.90
37678;DHT22;23517;50.390;8.616;2023-05-10T06:35:13;16.80;53.90
37678;DHT22;23517;50.390;8.616;2023-05-10T06:40:07;17.60;91.20
37678;DHT22;23517;50.390;8.616;2023-05-10T06:47:30;18.40;99.90
37678;DHT22;23517;50.390;8.616;2023-05-10T06:49:57;18.50;99.90
37678;DHT22;23517;50.390;8.616;2023-05-10T06:57:18;16.50;99.90
37678;DHT22;23517;50.390;8.616;2023-05-10T07:04:52;15.90;99.90
37678;DHT22;23517;50.390;8.616;2023-05-10T07:07:19;15.80;99.90
37678;DHT22;23517;50.390;8.616;2023-05-10T07:09:45;15.70;59.50
37678;DHT22;23517;50.390;8.616;2023-05-10T07:12:12;15.60;61.20
37678;DHT22;23517;50.390;8.616;2023-05-10T07:14:41;15.70;59.10
37678;DHT22;23517;50.390;8.616;2023-05-10T07:17:08;15.60;60.60
37678;DHT22;23517;50.390;8.616;2023-05-10T07:19:36;15.40;62.20
37678;DHT22;23517;50.390;8.616;2023-05-10T07:22:03;15.50;62.30
37678;DHT22;23517;50.390;8.616;2023-05-10T07:24:29;15.50;61.60
37678;DHT22;23517;50.390;8.616;2023-05-10T07:26:57;15.60;60.90
37678;DHT22;23517;50.390;8.616;2023-05-10T07:29:24;15.50;60.20
37678;DHT22;23517;50.390;8.616;2023-05-10T07:31:50;15.40;60.10
37678;DHT22;23517;50.390;8.616;2023-05-10T07:34:17;15.30;61.90
37678;DHT22;23517;50.390;8.616;2023-05-10T07:36:44;15.20;61.10
37678;DHT22;23517;50.390;8.616;2023-05-10T07:39:11;15.10;62.00
37678;DHT22;23517;50.390;8.616;2023-05-10T07:41:46;15.10;62.20
37678;DHT22;23517;50.390;8.616;2023-05-10T07:44:13;15.10;62.30
37678;DHT22;23517;50.390;8.616;2023-05-10T07:46:39;15.00;61.20
37678;DHT22;23517;50.390;8.616;2023-05-10T07:49:06;14.90;62.20
37678;DHT22;23517;50.390;8.616;2023-05-10T07:51:33;15.00;61.40
37678;DHT22;23517;50.390;8.616;2023-05-10T07:54:00;15.10;62.00
37678;DHT22;23517;50.390;8.616;2023-05-10T07:56:29;15.10;62.20
37678;DHT22;23517;50.390;8.616;2023-05-10T07:58:56;15.10;62.20
37678;DHT22;23517;50.390;8.616;2023-05-10T08:01:23;15.00;62.60
37678;DHT22;23517;50.390;8.616;2023-05-10T08:03:51;15.00;62.30
37678;DHT22;23517;50.390;8.616;2023-05-10T08:06:20;15.10;61.90
37678;DHT22;23517;50.390;8.616;2023-05-10T08:08:47;15.20;61.10
37678;DHT22;23517;50.390;8.616;2023-05-10T08:11:20;15.30;60.50
37678;DHT22;23517;50.390;8.616;2023-05-10T08:13:48;15.30;59.50
37678;DHT22;23517;50.390;8.616;2023-05-10T08:16:16;15.30;59.40
37678;DHT22;23517;50.390;8.616;2023-05-10T08:18:44;15.30;60.50
37678;DHT22;23517;50.390;8.616;2023-05-10T08:21:13;15.10;60.80
37678;DHT22;23517;50.390;8.616;2023-05-10T08:23:40;14.90;62.10
37678;DHT22;23517;50.390;8.616;2023-05-10T08:26:07;14.90;64.00
37678;DHT22;23517;50.390;8.616;2023-05-10T08:28:34;14.80;64.40
37678;DHT22;23517;50.390;8.616;2023-05-10T08:31:00;15.00;64.50
37678;DHT22;23517;50.390;8.616;2023-05-10T08:33:27;15.30;62.70
37678;DHT22;23517;50.390;8.616;2023-05-10T08:35:54;15.40;61.50
37678;DHT22;23517;50.390;8.616;2023-05-10T08:38:20;15.60;60.00
37678;DHT22;23517;50.390;8.616;2023-05-10T08:40:48;15.60;58.40
37678;DHT22;23517;50.390;8.616;2023-05-10T08:43:17;15.70;59.50
37678;DHT22;23517;50.390;8.616;2023-05-10T08:45:45;16.00;57.80
37678;DHT22;23517;50.390;8.616;2023-05-10T08:48:14;16.40;56.50
37678;DHT22;23517;50.390;8.616;2023-05-10T08:50:41;16.60;54.50
37678;DHT22;23517;50.390;8.616;2023-05-10T08:53:10;16.70;54.20
37678;DHT22;23517;50.390;8.616;2023-05-10T08:55:38;16.50;55.60
37678;DHT22;23517;50.390;8.616;2023-05-10T08:58:06;16.10;58.30
37678;DHT22;23517;50.390;8.616;2023-05-10T09:00:34;15.70;58.90
37678;DHT22;23517;50.390;8.616;2023-05-10T09:03:02;15.60;59.60
37678;DHT22;23517;50.390;8.616;2023-05-10T09:05:29;15.50;60.60
37678;DHT22;23517;50.390;8.616;2023-05-10T09:07:57;15.20;63.00
37678;DHT22;23517;50.390;8.616;2023-05-10T09:10:27;15.20;63.70
37678;DHT22;23517;50.390;8.616;2023-05-10T09:12:56;15.30;63.70
37678;DHT22;23517;50.390;8.616;2023-05-10T09:15:25;15.50;62.70
37678;DHT22;23517;50.390;8.616;2023-05-10T09:17:52;15.80;62.60
37678;DHT22;23517;50.390;8.616;2023-05-10T09:20:19;15.80;62.10
37678;DHT22;23517;50.390;8.616;2023-05-10T09:22:46;15.90;62.90
37678;DHT22;23517;50.390;8.616;2023-05-10T09:25:14;16.30;61.10
37678;DHT22;23517;50.390;8.616;2023-05-10T09:27:46;16.50;59.60
37678;DHT22;23517;50.390;8.616;2023-05-10T09:30:26;16.70;58.20
37678;DHT22;23517;50.390;8.616;2023-05-10T09:32:54;17.10;56.90
37678;DHT22;23517;50.390;8.616;2023-05-10T09:35:27;17.40;54.10
37678;DHT22;23517;50.390;8.616;2023-05-10T09:37:59;17.50;52.60
37678;DHT22;23517;50.390;8.616;2023-05-10T09:40:28;17.50;50.50
37678;DHT22;23517;50.390;8.616;2023-05-10T09:43:02;17.50;51.40
37678;DHT22;23517;50.390;8.616;2023-05-10T09:48:04;18.40;70.30
37678;DHT22;23517;50.390;8.616;2023-05-10T09:50:31;19.30;47.80
37678;DHT22;23517;50.390;8.616;2023-05-10T09:53:00;20.60;42.90
37678;DHT22;23517;50.390;8.616;2023-05-10T09:55:43;21.70;38.90
37678;DHT22;23517;50.390;8.616;2023-05-10T09:58:13;22.30;36.80
37678;DHT22;23517;50.390;8.616;2023-05-10T10:00:42;23.00;33.80
37678;DHT22;23517;50.390;8.616;2023-05-10T10:05:46;23.40;31.30
37678;DHT22;23517;50.390;8.616;2023-05-10T10:08:15;23.30;31.70
37678;DHT22;23517;50.390;8.616;2023-05-10T10:10:42;23.40;32.40
37678;DHT22;23517;50.390;8.616;2023-05-10T10:13:12;24.30;30.70
37678;DHT22;23517;50.390;8.616;2023-05-10T10:15:39;24.60;29.20
37678;DHT22;23517;50.390;8.616;2023-05-10T10:20:33;23.20;29.70
37678;DHT22;23517;50.390;8.616;2023-05-10T10:23:00;22.70;30.60
37678;DHT22;23517;50.390;8.616;2023-05-10T10:25:26;22.30;31.20
37678;DHT22;23517;50.390;8.616;2023-05-10T10:30:31;20.80;34.60
37678;DHT22;23517;50.390;8.616;2023-05-10T10:36:06;20.20;36.00
37678;DHT22;23517;50.390;8.616;2023-05-10T10:41:35;19.10;38.60
37678;DHT22;23517;50.390;8.616;2023-05-10T10:44:23;18.70;39.80
37678;DHT22;23517;50.390;8.616;2023-05-10T10:52:28;17.90;44.00
37678;DHT22;23517;50.390;8.616;2023-05-10T10:55:00;17.80;42.80
37678;DHT22;23517;50.390;8.616;2023-05-10T10:57:31;17.60;43.50
37678;DHT22;23517;50.390;8.616;2023-05-10T11:03:10;17.50;45.20
37678;DHT22;23517;50.390;8.616;2023-05-10T11:05:41;17.70;44.90
37678;DHT22;23517;50.390;8.616;2023-05-10T11:08:10;17.90;46.80
37678;DHT22;23517;50.390;8.616;2023-05-10T11:11:14;17.80;47.90
37678;DHT22;23517;50.390;8.616;2023-05-10T11:13:43;17.50;48.00
37678;DHT22;23517;50.390;8.616;2023-05-10T11:16:18;17.50;48.10
37678;DHT22;23517;50.390;8.616;2023-05-10T11:18:59;17.60;48.50
37678;DHT22;23517;50.390;8.616;2023-05-10T11:21:31;17.70;49.20
37678;DHT22;23517;50.390;8.616;2023-05-10T11:24:00;18.10;48.20
37678;DHT22;23517;50.390;8.616;2023-05-10T11:26:32;18.10;47.50
37678;DHT22;23517;50.390;8.616;2023-05-10T11:29:00;18.20;45.10
37678;DHT22;23517;50.390;8.616;2023-05-10T11:31:28;18.20;45.10
37678;DHT22;23517;50.390;8.616;2023-05-10T11:33:57;18.50;44.00
37678;DHT22;23517;50.390;8.616;2023-05-10T11:36:27;18.60;42.50
37678;DHT22;23517;50.390;8.616;2023-05-10T11:38:56;19.10;40.90
37678;DHT22;23517;50.390;8.616;2023-05-10T11:41:24;19.10;40.60
37678;DHT22;23517;50.390;8.616;2023-05-10T11:43:52;19.20;39.80
37678;DHT22;23517;50.390;8.616;2023-05-10T11:46:21;19.10;39.80
37678;DHT22;23517;50.390;8.616;2023-05-10T11:48:57;19.30;40.20
37678;DHT22;23517;50.390;8.616;2023-05-10T11:51:27;19.30;40.30
37678;DHT22;23517;50.390;8.616;2023-05-10T11:53:55;19.40;41.00
37678;DHT22;23517;50.390;8.616;2023-05-10T11:56:23;19.50;40.40
37678;DHT22;23517;50.390;8.616;2023-05-10T11:58:54;19.40;39.50
37678;DHT22;23517;50.390;8.616;2023-05-10T12:01:23;19.20;39.00
37678;DHT22;23517;50.390;8.616;2023-05-10T12:03:51;19.30;38.60
37678;DHT22;23517;50.390;8.616;2023-05-10T12:06:20;19.10;39.50
37678;DHT22;23517;50.390;8.616;2023-05-10T12:08:48;18.90;39.70
37678;DHT22;23517;50.390;8.616;2023-05-10T12:11:19;18.90;39.80
37678;DHT22;23517;50.390;8.616;2023-05-10T12:13:48;18.60;40.40
37678;DHT22;23517;50.390;8.616;2023-05-10T12:16:24;18.50;41.00
37678;DHT22;23517;50.390;8.616;2023-05-10T12:18:55;18.30;41.30
37678;DHT22;23517;50.390;8.616;2023-05-10T12:21:24;18.00;41.50
37678;DHT22;23517;50.390;8.616;2023-05-10T12:23:53;17.60;43.20
37678;DHT22;23517;50.390;8.616;2023-05-10T12:26:24;17.50;43.80
37678;DHT22;23517;50.390;8.616;2023-05-10T12:28:53;17.40;44.50
37678;DHT22;23517;50.390;8.616;2023-05-10T12:31:20;17.40;45.60
37678;DHT22;23517;50.390;8.616;2023-05-10T12:33:47;17.40;46.30
37678;DHT22;23517;50.390;8.616;2023-05-10T12:36:16;17.40;47.00
37678;DHT22;23517;50.390;8.616;2023-05-10T12:38:44;17.30;48.00
37678;DHT22;23517;50.390;8.616;2023-05-10T12:41:16;17.20;49.00
37678;DHT22;23517;50.390;8.616;2023-05-10T12:43:44;17.30;49.40
37678;DHT22;23517;50.390;8.616;2023-05-10T12:46:15;17.30;49.10
37678;DHT22;23517;50.390;8.616;2023-05-10T12:48:44;17.20;48.30
37678;DHT22;23517;50.390;8.616;2023-05-10T12:51:12;17.10;50.30
37678;DHT22;23517;50.390;8.616;2023-05-10T12:53:41;17.30;49.20
37678;DHT22;23517;50.390;8.616;2023-05-10T12:56:11;17.70;48.40
37678;DHT22;23517;50.390;8.616;2023-05-10T12:58:38;18.00;45.90
37678;DHT22;23517;50.390;8.616;2023-05-10T13:01:05;18.10;42.50
37678;DHT22;23517;50.390;8.616;2023-05-10T13:03:32;18.10;42.40
37678;DHT22;23517;50.390;8.616;2023-05-10T13:05:59;18.30;40.80
37678;DHT22;23517;50.390;8.616;2023-05-10T13:08:25;18.40;39.90
37678;DHT22;23517;50.390;8.616;2023-05-10T13:10:52;18.60;37.20
37678;DHT22;23517;50.390;8.616;2023-05-10T13:13:19;18.50;37.90
37678;DHT22;23517;50.390;8.616;2023-05-10T13:15:46;18.40;38.70
37678;DHT22;23517;50.390;8.616;2023-05-10T13:18:12;18.10;39.40
37678;DHT22;23517;50.390;8.616;2023-05-10T13:20:39;18.10;39.80
37678;DHT22;23517;50.390;8.616;2023-05-10T13:23:06;18.00;39.50
37678;DHT22;23517;50.390;8.616;2023-05-10T13:25:33;17.90;39.30
37678;DHT22;23517;50.390;8.616;2023-05-10T13:28:00;18.10;39.00
37678;DHT22;23517;50.390;8.616;2023-05-10T13:30:27;18.20;38.50
37678;DHT22;23517;50.390;8.616;2023-05-10T13:32:55;18.40;38.30
37678;DHT22;23517;50.390;8.616;2023-05-10T13:35:21;18.60;37.30
37678;DHT22;23517;50.390;8.616;2023-05-10T13:37:48;18.80;37.30
37678;DHT22;23517;50.390;8.616;2023-05-10T13:40:16;18.80;36.10
37678;DHT22;23517;50.390;8.616;2023-05-10T13:42:43;19.20;34.50
37678;DHT22;23517;50.390;8.616;2023-05-10T13:45:10;19.40;34.30
37678;DHT22;23517;50.390;8.616;2023-05-10T13:47:38;19.70;33.00
37678;DHT22;23517;50.390;8.616;2023-05-10T13:50:06;19.40;33.80
37678;DHT22;23517;50.390;8.616;2023-05-10T13:52:33;19.30;33.50
37678;DHT22;23517;50.390;8.616;2023-05-10T13:55:00;19.20;34.40
37678;DHT22;23517;50.390;8.616;2023-05-10T13:57:26;19.30;35.90
37678;DHT22;23517;50.390;8.616;2023-05-10T13:59:55;19.30;36.80
37678;DHT22;23517;50.390;8.616;2023-05-10T14:02:23;19.30;36.80
37678;DHT22;23517;50.390;8.616;2023-05-10T14:04:51;19.50;36.00
37678;DHT22;23517;50.390;8.616;2023-05-10T14:07:17;19.30;35.50
37678;DHT22;23517;50.390;8.616;2023-05-10T14:09:44;19.00;35.00
37678;DHT22;23517;50.390;8.616;2023-05-10T14:12:11;18.70;36.20
37678;DHT22;23517;50.390;8.616;2023-05-10T14:14:38;18.50;37.10
37678;DHT22;23517;50.390;8.616;2023-05-10T14:17:04;18.40;36.90
37678;DHT22;23517;50.390;8.616;2023-05-10T14:19:31;18.10;36.80
37678;DHT22;23517;50.390;8.616;2023-05-10T14:22:00;18.10;37.60
37678;DHT22;23517;50.390;8.616;2023-05-10T14:24:26;18.10;40.70
37678;DHT22;23517;50.390;8.616;2023-05-10T14:26:53;17.80;43.60
37678;DHT22;23517;50.390;8.616;2023-05-10T14:29:20;17.60;48.00
37678;DHT22;23517;50.390;8.616;2023-05-10T14:31:48;17.30;47.80
37678;DHT22;23517;50.390;8.616;2023-05-10T14:34:15;17.10;49.90
37678;DHT22;23517;50.390;8.616;2023-05-10T14:36:42;16.90;50.20
37678;DHT22;23517;50.390;8.616;2023-05-10T14:39:09;16.70;48.70
37678;DHT22;23517;50.390;8.616;2023-05-10T14:41:36;16.60;50.80
37678;DHT22;23517;50.390;8.616;2023-05-10T14:44:03;16.40;50.90
37678;DHT22;23517;50.390;8.616;2023-05-10T14:46:30;16.40;50.40
37678;DHT22;23517;50.390;8.616;2023-05-10T14:48:56;16.20;50.50
37678;DHT22;23517;50.390;8.616;2023-05-10T14:51:23;16.20;50.00
37678;DHT22;23517;50.390;8.616;2023-05-10T14:53:49;16.20;49.90
37678;DHT22;23517;50.390;8.616;2023-05-10T14:56:16;16.10;49.90
37678;DHT22;23517;50.390;8.616;2023-05-10T14:58:43;16.20;50.10
37678;DHT22;23517;50.390;8.616;2023-05-10T15:01:09;16.30;49.20
37678;DHT22;23517;50.390;8.616;2023-05-10T15:03:36;16.60;48.60
37678;DHT22;23517;50.390;8.616;2023-05-10T15:06:04;16.80;47.00
37678;DHT22;23517;50.390;8.616;2023-05-10T15:08:31;16.90;45.40
37678;DHT22;23517;50.390;8.616;2023-05-10T15:10:57;16.80;45.70
37678;DHT22;23517;50.390;8.616;2023-05-10T15:13:26;16.60;46.40
37678;DHT22;23517;50.390;8.616;2023-05-10T15:15:53;16.80;45.10
37678;DHT22;23517;50.390;8.616;2023-05-10T15:18:20;16.90;46.80
37678;DHT22;23517;50.390;8.616;2023-05-10T15:20:46;17.00;46.70
37678;DHT22;23517;50.390;8.616;2023-05-10T15:23:13;17.20;46.10
37678;DHT22;23517;50.390;8.616;2023-05-10T15:25:39;17.50;44.90
37678;DHT22;23517;50.390;8.616;2023-05-10T15:28:06;17.60;44.20
37678;DHT22;23517;50.390;8.616;2023-05-10T15:30:33;17.60;44.60
37678;DHT22;23517;50.390;8.616;2023-05-10T15:32:59;17.80;44.30
37678;DHT22;23517;50.390;8.616;2023-05-10T15:35:26;18.00;44.20
37678;DHT22;23517;50.390;8.616;2023-05-10T15:37:53;18.00;42.30
37678;DHT22;23517;50.390;8.616;2023-05-10T15:40:20;17.90;43.30
37678;DHT22;23517;50.390;8.616;2023-05-10T15:42:46;17.90;43.70
37678;DHT22;23517;50.390;8.616;2023-05-10T15:45:13;18.00;43.30
37678;DHT22;23517;50.390;8.616;2023-05-10T15:47:39;18.00;40.70
37678;DHT22;23517;50.390;8.616;2023-05-10T15:50:07;18.10;41.20
37678;DHT22;23517;50.390;8.616;2023-05-10T15:52:34;18.10;40.60
37678;DHT22;23517;50.390;8.616;2023-05-10T15:55:01;18.10;38.90
37678;DHT22;23517;50.390;8.616;2023-05-10T15:57:29;18.10;38.50
37678;DHT22;23517;50.390;8.616;2023-05-10T15:59:56;17.90;38.80
37678;DHT22;23517;50.390;8.616;2023-05-10T16:02:23;17.90;38.00
37678;DHT22;23517;50.390;8.616;2023-05-10T16:04:50;18.00;38.50
37678;DHT22;23517;50.390;8.616;2023-05-10T16:07:17;18.00;38.20
37678;DHT22;23517;50.390;8.616;2023-05-10T16:09:43;18.00;38.40
37678;DHT22;23517;50.390;8.616;2023-05-10T16:12:10;18.00;37.40
37678;DHT22;23517;50.390;8.616;2023-05-10T16:14:37;18.00;37.10
37678;DHT22;23517;50.390;8.616;2023-05-10T16:17:03;18.00;37.30
37678;DHT22;23517;50.390;8.616;2023-05-10T16:19:30;18.00;37.40
37678;DHT22;23517;50.390;8.616;2023-05-10T16:21:57;18.00;37.60
37678;DHT22;23517;50.390;8.616;2023-05-10T16:24:24;18.00;37.80
37678;DHT22;23517;50.390;8.616;2023-05-10T16:26:51;18.00;37.80
37678;DHT22;23517;50.390;8.616;2023-05-10T16:29:18;17.90;37.90